Time,TemperatureF,DewpointF,PressureIn,WindDirection,WindDirectionDegrees,WindSpeedMPH,WindSpeedGustMPH,Humidity,HourlyPrecipIn,Conditions,Clouds,dailyrainin,SolarRadiationWatts/m^2,SoftwareType,DateUTC
2013-08-11 00:02:00,83.0,64.0,-100.00,SE,137,2.0,5.0,52,0.00,,,0.00,0.000000,,2013-08-11 05:02:00,
2013-08-11 00:38:00,84.0,66.0,-100.00,SSE,147,3.0,8.0,54,0.00,,,0.00,0.000000,,2013-08-11 05:38:00,
2013-08-11 00:49:00,84.0,66.0,-100.00,SSE,147,3.0,8.0,54,0.00,,,0.00,0.000000,,2013-08-11 05:49:00,
2013-08-11 00:56:00,84.0,66.0,-100.00,SSE,147,3.0,8.0,54,0.00,,,0.00,0.000000,,2013-08-11 05:56:00,
2013-08-11 01:03:00,84.0,66.0,-100.00,SSE,147,3.0,8.0,54,0.00,,,0.00,0.000000,,2013-08-11 06:03:00,
2013-08-11 01:38:00,82.0,66.0,-100.00,SSE,156,2.0,10.0,58,0.00,,,0.00,0.000000,,2013-08-11 06:38:00,
2013-08-11 01:49:00,82.0,66.0,-100.00,SSE,156,2.0,10.0,58,0.00,,,0.00,0.000000,,2013-08-11 06:49:00,
2013-08-11 01:57:00,82.0,66.0,-100.00,SSE,156,2.0,10.0,58,0.00,,,0.00,0.000000,,2013-08-11 06:57:00,
2013-08-11 02:06:00,82.0,66.0,-100.00,SSE,156,2.0,10.0,58,0.00,,,0.00,0.000000,,2013-08-11 07:06:00,
2013-08-11 02:47:00,78.0,66.0,-100.00,ESE,118,2.0,4.0,67,0.00,,,0.00,0.000000,,2013-08-11 07:47:00,
2013-08-11 02:56:00,78.0,66.0,-100.00,ESE,118,2.0,4.0,67,0.00,,,0.00,0.000000,,2013-08-11 07:56:00,
2013-08-11 03:06:00,78.0,66.0,-100.00,ESE,118,2.0,4.0,67,0.00,,,0.00,0.000000,,2013-08-11 08:06:00,
2013-08-11 03:37:00,79.0,66.0,-100.00,SE,141,4.0,6.0,65,0.00,,,0.00,0.000000,,2013-08-11 08:37:00,
2013-08-11 03:49:00,79.0,66.0,-100.00,SE,141,4.0,6.0,65,0.00,,,0.00,0.000000,,2013-08-11 08:49:00,
2013-08-11 03:59:00,79.0,66.0,-100.00,SE,141,4.0,6.0,65,0.00,,,0.00,0.000000,,2013-08-11 08:59:00,
2013-08-11 04:05:00,79.0,66.0,-100.00,SE,141,4.0,6.0,65,0.00,,,0.00,0.000000,,2013-08-11 09:05:00,
2013-08-11 04:36:00,77.0,65.0,-100.00,SSE,152,3.0,6.0,67,0.00,,,0.00,0.000000,,2013-08-11 09:36:00,
2013-08-11 04:44:00,77.0,65.0,-100.00,SSE,152,3.0,6.0,67,0.00,,,0.00,0.000000,,2013-08-11 09:44:00,
2013-08-11 05:00:00,77.0,65.0,-100.00,SSE,152,3.0,6.0,67,0.00,,,0.00,0.000000,,2013-08-11 10:00:00,
2013-08-11 05:38:00,77.0,66.0,-100.00,SSE,151,2.0,7.0,69,0.00,,,0.00,0.000000,,2013-08-11 10:38:00,
2013-08-11 05:47:00,77.0,66.0,-100.00,SSE,151,2.0,7.0,69,0.00,,,0.00,0.000000,,2013-08-11 10:47:00,
2013-08-11 05:57:00,77.0,66.0,-100.00,SSE,151,2.0,7.0,69,0.00,,,0.00,0.000000,,2013-08-11 10:57:00,
2013-08-11 06:06:00,77.0,66.0,-100.00,SSE,151,2.0,7.0,69,0.00,,,0.00,0.000000,,2013-08-11 11:06:00,
2013-08-11 06:39:00,77.0,67.0,-100.00,SSE,155,2.0,5.0,72,0.00,,,-99.99,0.000000,,2013-08-11 11:39:00,
2013-08-11 06:49:00,77.0,67.0,-100.00,SSE,155,2.0,5.0,72,0.00,,,-99.99,0.000000,,2013-08-11 11:49:00,
2013-08-11 06:59:00,77.0,67.0,-100.00,SSE,155,2.0,5.0,72,0.00,,,-99.99,0.000000,,2013-08-11 11:59:00,
2013-08-11 07:05:00,77.0,67.0,-100.00,SSE,155,2.0,5.0,72,0.00,,,-99.99,0.000000,,2013-08-11 12:05:00,
2013-08-11 07:37:00,76.0,67.0,-100.00,SE,146,3.0,7.0,75,0.00,,,-99.99,4.000000,,2013-08-11 12:37:00,
2013-08-11 07:47:00,76.0,67.0,-100.00,SE,146,3.0,7.0,75,0.00,,,-99.99,4.000000,,2013-08-11 12:47:00,
2013-08-11 07:56:00,76.0,67.0,-100.00,SE,146,3.0,7.0,75,0.00,,,-99.99,4.000000,,2013-08-11 12:56:00,
2013-08-11 08:05:00,76.0,67.0,-100.00,SE,146,3.0,7.0,75,0.00,,,-99.99,4.000000,,2013-08-11 13:05:00,
2013-08-11 08:58:00,80.0,70.0,-100.00,South,189,3.0,8.0,72,0.00,,,0.00,81.000000,,2013-08-11 13:58:00,
2013-08-11 09:36:00,84.0,71.0,-100.00,South,182,6.0,11.0,65,0.00,,,0.00,258.000000,,2013-08-11 14:36:00,
2013-08-11 09:49:00,84.0,71.0,-100.00,South,182,6.0,11.0,65,0.00,,,0.00,258.000000,,2013-08-11 14:49:00,
2013-08-11 09:57:00,84.0,71.0,-100.00,South,182,6.0,11.0,65,0.00,,,0.00,258.000000,,2013-08-11 14:57:00,
2013-08-11 10:40:00,89.0,72.0,-100.00,South,177,5.0,10.0,57,0.00,,,0.00,471.000000,,2013-08-11 15:40:00,
2013-08-11 10:49:00,89.0,72.0,-100.00,South,177,5.0,10.0,57,0.00,,,0.00,471.000000,,2013-08-11 15:49:00,
2013-08-11 10:59:00,89.0,72.0,-100.00,South,177,5.0,10.0,57,0.00,,,0.00,471.000000,,2013-08-11 15:59:00,
2013-08-11 11:06:00,89.0,72.0,-100.00,South,177,5.0,10.0,57,0.00,,,0.00,471.000000,,2013-08-11 16:06:00,
2013-08-11 11:41:00,92.0,70.0,-100.00,South,171,5.0,10.0,49,0.00,,,0.00,676.000000,,2013-08-11 16:41:00,
2013-08-11 11:47:00,92.0,70.0,-100.00,South,171,5.0,10.0,49,0.00,,,0.00,676.000000,,2013-08-11 16:47:00,
2013-08-11 11:57:00,92.0,70.0,-100.00,South,171,5.0,10.0,49,0.00,,,0.00,676.000000,,2013-08-11 16:57:00,
2013-08-11 12:06:00,92.0,70.0,-100.00,South,171,5.0,10.0,49,0.00,,,0.00,676.000000,,2013-08-11 17:06:00,
2013-08-11 12:38:00,95.0,70.0,-100.00,WNW,302,5.0,10.0,44,0.00,,,0.00,832.000000,,2013-08-11 17:38:00,
2013-08-11 12:47:00,95.0,70.0,-100.00,WNW,302,5.0,10.0,44,0.00,,,0.00,832.000000,,2013-08-11 17:47:00,
2013-08-11 12:57:00,95.0,70.0,-100.00,WNW,302,5.0,10.0,44,0.00,,,0.00,832.000000,,2013-08-11 17:57:00,
2013-08-11 13:05:00,95.0,70.0,-100.00,WNW,302,5.0,10.0,44,0.00,,,0.00,832.000000,,2013-08-11 18:05:00,
2013-08-11 13:40:00,98.0,70.0,-100.00,West,265,5.0,11.0,41,0.00,,,0.00,932.000000,,2013-08-11 18:40:00,
2013-08-11 13:49:00,98.0,70.0,-100.00,West,265,5.0,11.0,41,0.00,,,0.00,932.000000,,2013-08-11 18:49:00,
2013-08-11 13:56:00,98.0,70.0,-100.00,West,265,5.0,11.0,41,0.00,,,0.00,932.000000,,2013-08-11 18:56:00,
2013-08-11 14:04:00,98.0,70.0,-100.00,West,265,5.0,11.0,41,0.00,,,0.00,932.000000,,2013-08-11 19:04:00,
2013-08-11 14:35:00,101.0,70.0,-100.00,NNW,335,5.0,10.0,37,0.00,,,0.00,986.000000,,2013-08-11 19:35:00,
2013-08-11 14:51:00,101.0,70.0,-100.00,NNW,335,5.0,10.0,37,0.00,,,0.00,986.000000,,2013-08-11 19:51:00,
2013-08-11 14:59:00,101.0,70.0,-100.00,NNW,335,5.0,10.0,37,0.00,,,0.00,986.000000,,2013-08-11 19:59:00,
2013-08-11 15:58:00,101.0,67.0,-100.00,North,11,5.0,9.0,34,0.00,,,0.00,900.000000,,2013-08-11 20:58:00,
2013-08-11 16:36:00,103.0,68.0,-100.00,East,86,5.0,12.0,33,0.00,,,0.00,966.000000,,2013-08-11 21:36:00,
2013-08-11 16:49:00,103.0,68.0,-100.00,East,86,5.0,12.0,33,0.00,,,0.00,966.000000,,2013-08-11 21:49:00,
2013-08-11 17:03:00,103.0,68.0,-100.00,East,86,5.0,12.0,33,0.00,,,0.00,966.000000,,2013-08-11 22:03:00,
2013-08-11 17:36:00,103.0,65.0,-100.00,ENE,60,4.0,11.0,29,0.00,,,0.00,681.000000,,2013-08-11 22:36:00,
2013-08-11 17:47:00,103.0,65.0,-100.00,ENE,60,4.0,11.0,29,0.00,,,0.00,681.000000,,2013-08-11 22:47:00,
2013-08-11 17:57:00,103.0,65.0,-100.00,ENE,60,4.0,11.0,29,0.00,,,0.00,681.000000,,2013-08-11 22:57:00,
2013-08-11 18:03:00,103.0,65.0,-100.00,ENE,60,4.0,11.0,29,0.00,,,0.00,681.000000,,2013-08-11 23:03:00,
2013-08-11 18:36:00,102.0,65.0,-100.00,ENE,57,4.0,10.0,30,0.00,,,0.00,499.000000,,2013-08-11 23:36:00,
2013-08-11 18:49:00,102.0,65.0,-100.00,ENE,57,4.0,10.0,30,0.00,,,0.00,499.000000,,2013-08-11 23:49:00,
2013-08-11 18:57:00,102.0,65.0,-100.00,ENE,57,4.0,10.0,30,0.00,,,0.00,499.000000,,2013-08-11 23:57:00,
2013-08-11 19:04:00,102.0,65.0,-100.00,ENE,57,4.0,10.0,30,0.00,,,0.00,499.000000,,2013-08-12 00:04:00,
2013-08-11 19:38:00,100.0,64.0,-100.00,SE,137,4.0,11.0,31,0.00,,,0.00,305.000000,,2013-08-12 00:38:00,
2013-08-11 19:51:00,100.0,64.0,-100.00,SE,137,4.0,11.0,31,0.00,,,0.00,305.000000,,2013-08-12 00:51:00,
2013-08-11 19:58:00,100.0,64.0,-100.00,SE,137,4.0,11.0,31,0.00,,,0.00,305.000000,,2013-08-12 00:58:00,
2013-08-11 20:05:00,100.0,64.0,-100.00,SE,137,4.0,11.0,31,0.00,,,0.00,305.000000,,2013-08-12 01:05:00,
2013-08-11 20:40:00,94.0,63.0,-100.00,SE,146,4.0,7.0,36,0.00,,,0.00,77.000000,,2013-08-12 01:40:00,
2013-08-11 20:48:00,94.0,63.0,-100.00,SE,146,4.0,7.0,36,0.00,,,0.00,77.000000,,2013-08-12 01:48:00,
2013-08-11 20:55:00,94.0,63.0,-100.00,SE,146,4.0,7.0,36,0.00,,,0.00,77.000000,,2013-08-12 01:55:00,
2013-08-11 21:37:00,87.0,67.0,-100.00,ESE,114,5.0,12.0,52,0.00,,,0.00,2.000000,,2013-08-12 02:37:00,
2013-08-11 21:49:00,87.0,67.0,-100.00,ESE,114,5.0,12.0,52,0.00,,,0.00,2.000000,,2013-08-12 02:49:00,
2013-08-11 21:59:00,87.0,67.0,-100.00,ESE,114,5.0,12.0,52,0.00,,,0.00,2.000000,,2013-08-12 02:59:00,
2013-08-11 22:05:00,87.0,67.0,-100.00,ESE,114,5.0,12.0,52,0.00,,,0.00,2.000000,,2013-08-12 03:05:00,
2013-08-11 22:39:00,86.0,65.0,-100.00,ESE,121,3.0,11.0,50,0.00,,,0.00,0.000000,,2013-08-12 03:39:00,
2013-08-11 22:48:00,86.0,65.0,-100.00,ESE,121,3.0,11.0,50,0.00,,,0.00,0.000000,,2013-08-12 03:48:00,
2013-08-11 23:00:00,86.0,65.0,-100.00,ESE,121,3.0,11.0,50,0.00,,,0.00,0.000000,,2013-08-12 04:00:00,
2013-08-11 23:02:00,86.0,65.0,-100.00,ESE,121,3.0,11.0,50,0.00,,,0.00,0.000000,,2013-08-12 04:02:00,
2013-08-11 23:33:00,85.0,65.0,-100.00,SSE,149,8.0,13.0,52,0.00,,,0.00,0.000000,,2013-08-12 04:33:00,
2013-08-11 23:43:00,85.0,65.0,-100.00,SSE,149,8.0,13.0,52,0.00,,,0.00,0.000000,,2013-08-12 04:43:00,
2013-08-11 23:52:00,85.0,65.0,-100.00,SSE,149,8.0,13.0,52,0.00,,,0.00,0.000000,,2013-08-12 04:52:00,